Terminal Aerodrome Forecast
Issued by NWS Louisville, KY

Home | Current Version | Previous Version | Text Only | Print | Product List | Glossary On
Versions: 1 2 3 4 5 6 7 8 9 10 11 12 13 14 15 16 17 18 19 20 21
000
FTUS43 KLMK 021300 AAA
TAFBWG
TAF AMD
KBWG 021324Z 0213/0312 VRB05KT P6SM VCSH BKN035
     FM021600 20010KT P6SM VCSH SCT035 BKN100
     FM021900 23010KT 5SM SHRA VCTS SCT025CB BKN150
     FM030400 21007KT 5SM BR VCSH SCT010 BKN100=

USA.gov is the U.S. government's official web portal to all federal, state and local government web resources and services.